Time;durP1;ratioP1;P1;durP2;ratioP2;P2;SDS_P1;SDS_P2;PMS_P1;PMS_P2;Temp;Humidity;BMP_temperature;BMP_pressure;BME280_temperature;BME280_humidity;BME280_pressure;Samples;Min_cycle;Max_cycle;Signal;HPM_P1;HPM_P2
2024/01/12 00:02:02;;;;;;;15.10;9.47;;;;;;;0.90;77.66;99430.44;5033030;28;20441;-71
2024/01/12 00:04:29;;;;;;;9.33;8.47;;;;;;;0.83;78.02;99431.94;5032962;28;20504;-71
2024/01/12 00:06:56;;;;;;;10.07;8.97;;;;;;;0.96;77.19;99442.94;5032715;28;20510;-71
2024/01/12 00:09:24;;;;;;;14.83;9.10;;;;;;;1.00;77.92;99439.94;5032490;28;20448;-71
2024/01/12 00:11:52;;;;;;;8.57;7.83;;;;;;;0.99;77.48;99440.91;5032690;28;20497;-72
2024/01/12 00:14:19;;;;;;;12.40;8.73;;;;;;;0.87;77.01;99444.59;5032276;28;20531;-72
2024/01/12 00:16:48;;;;;;;7.70;7.00;;;;;;;1.04;77.05;99436.09;5032287;28;20955;-72
2024/01/12 00:19:15;;;;;;;8.33;7.33;;;;;;;1.00;77.08;99439.94;5032690;28;20503;-72
2024/01/12 00:21:43;;;;;;;9.77;6.83;;;;;;;1.14;76.11;99447.34;5032383;28;20440;-72
2024/01/12 00:24:10;;;;;;;7.43;6.73;;;;;;;1.14;76.30;99457.81;5032566;28;20503;-73
2024/01/12 00:26:38;;;;;;;8.50;7.50;;;;;;;1.09;75.41;99451.34;5031905;28;20443;-72
2024/01/12 00:29:05;;;;;;;11.00;7.67;;;;;;;1.12;75.93;99454.53;5032245;28;20432;-73
2024/01/12 00:31:33;;;;;;;9.77;8.23;;;;;;;1.15;76.16;99459.50;5031994;28;20489;-72
2024/01/12 00:33:59;;;;;;;8.20;7.53;;;;;;;1.13;75.72;99465.78;5032347;28;20440;-72
2024/01/12 00:36:26;;;;;;;8.93;7.47;;;;;;;1.12;74.95;99459.75;5031928;28;20514;-72
2024/01/12 00:38:53;;;;;;;8.07;7.37;;;;;;;1.13;75.30;99450.94;5051068;28;20859;-72
2024/01/12 00:41:19;;;;;;;8.30;7.50;;;;;;;1.18;75.33;99453.97;5051998;28;20513;-72
2024/01/12 00:43:47;;;;;;;8.53;7.73;;;;;;;1.11;76.25;99458.13;5051812;28;20938;-72
2024/01/12 00:46:14;;;;;;;8.83;8.03;;;;;;;0.97;76.83;99455.09;5051871;28;20497;-72
2024/01/12 00:48:41;;;;;;;8.43;7.50;;;;;;;0.92;77.19;99445.03;5051711;28;20451;-73
2024/01/12 00:51:07;;;;;;;8.67;7.97;;;;;;;0.91;78.01;99446.00;5051485;28;20802;-72
2024/01/12 00:53:34;;;;;;;8.87;7.97;;;;;;;0.83;76.14;99453.69;5051993;28;20522;-72
2024/01/12 00:56:01;;;;;;;14.50;8.87;;;;;;;0.77;76.18;99454.22;5051696;28;20541;-72
2024/01/12 00:58:27;;;;;;;8.07;7.33;;;;;;;0.74;76.06;99454.50;5051537;28;20954;-72
2024/01/12 01:00:55;;;;;;;7.57;6.93;;;;;;;0.70;75.42;99458.34;5051780;28;20450;-72
2024/01/12 01:03:22;;;;;;;9.13;8.10;;;;;;;0.59;74.92;99473.28;5051521;28;20435;-73
2024/01/12 01:05:49;;;;;;;10.17;7.87;;;;;;;0.58;71.65;99475.09;5051396;28;20524;-72
2024/01/12 01:08:16;;;;;;;9.07;6.67;;;;;;;0.56;71.54;99479.63;5051674;28;20471;-72
2024/01/12 01:10:43;;;;;;;8.00;6.60;;;;;;;0.62;70.80;99473.03;5051276;28;20497;-72
2024/01/12 01:13:10;;;;;;;7.70;7.00;;;;;;;0.61;71.08;99480.03;5051603;28;20474;-72
2024/01/12 01:15:37;;;;;;;7.90;6.90;;;;;;;0.55;70.51;99480.59;5051861;28;20475;-73
2024/01/12 01:18:05;;;;;;;8.97;7.20;;;;;;;0.52;69.75;99480.84;5051533;28;20441;-73
2024/01/12 01:20:33;;;;;;;7.13;6.53;;;;;;;0.53;68.91;99479.88;5031197;28;20444;-71
2024/01/12 01:23:00;;;;;;;7.70;7.00;;;;;;;0.55;68.38;99483.19;5030558;28;20450;-73
2024/01/12 01:25:26;;;;;;;8.17;6.90;;;;;;;0.57;68.85;99489.09;5030924;28;20955;-72
2024/01/12 01:27:54;;;;;;;9.23;7.20;;;;;;;0.42;68.21;99490.44;5030646;28;20448;-72
2024/01/12 01:30:21;;;;;;;7.80;6.73;;;;;;;0.42;67.22;99500.91;5031210;28;20537;-72
2024/01/12 01:32:48;;;;;;;8.53;6.87;;;;;;;0.48;66.62;99508.19;5030683;28;20952;-72
2024/01/12 01:35:17;;;;;;;9.13;7.53;;;;;;;0.47;66.85;99503.94;5030882;28;20475;-71
2024/01/12 01:37:44;;;;;;;7.83;7.13;;;;;;;0.48;67.13;99492.50;5041077;28;20515;-72
2024/01/12 01:40:11;;;;;;;7.40;6.70;;;;;;;0.48;67.23;99489.91;5055103;28;20867;-71
2024/01/12 01:42:39;;;;;;;7.83;7.03;;;;;;;0.57;67.50;99477.84;5055554;28;20558;-71
2024/01/12 01:45:06;;;;;;;7.57;6.47;;;;;;;0.61;66.45;99474.81;5055362;28;20447;-72
2024/01/12 01:47:33;;;;;;;7.53;6.60;;;;;;;0.66;66.80;99470.03;5054982;28;20946;-72
2024/01/12 01:50:00;;;;;;;7.87;6.63;;;;;;;0.71;65.45;99462.59;5055308;28;20449;-72
2024/01/12 01:52:28;;;;;;;7.03;6.20;;;;;;;0.76;65.40;99456.97;5055234;28;20449;-72
2024/01/12 01:54:57;;;;;;;6.67;6.20;;;;;;;0.76;65.26;99457.78;5054843;28;20577;-72
2024/01/12 01:57:26;;;;;;;7.00;6.30;;;;;;;0.73;65.55;99455.44;5055102;28;20454;-72
2024/01/12 01:59:53;;;;;;;7.63;6.97;;;;;;;0.68;64.88;99449.81;5055179;28;20446;-72
2024/01/12 02:02:19;;;;;;;6.87;6.30;;;;;;;0.67;65.10;99453.38;5055031;28;20500;-73
2024/01/12 02:04:46;;;;;;;6.90;6.30;;;;;;;0.62;65.84;99455.59;5054978;28;20447;-73
2024/01/12 02:07:13;;;;;;;6.87;6.27;;;;;;;0.60;65.92;99441.81;5055122;28;20453;-72
2024/01/12 02:09:41;;;;;;;8.83;5.90;;;;;;;0.63;66.46;99451.16;5055039;28;20447;-72
2024/01/12 02:12:08;;;;;;;7.00;5.97;;;;;;;0.55;65.86;99433.56;5054778;28;20439;-73
2024/01/12 02:14:35;;;;;;;7.07;6.57;;;;;;;0.71;66.42;99438.25;5054652;28;20435;-73
2024/01/12 02:17:02;;;;;;;7.07;6.47;;;;;;;0.68;67.64;99431.50;5054831;28;20442;-73
2024/01/12 02:19:28;;;;;;;6.37;5.77;;;;;;;0.69;67.65;99424.50;5054501;28;20438;-73
2024/01/12 02:21:56;;;;;;;6.60;6.10;;;;;;;0.60;68.91;99420.91;5054251;28;21014;-73
2024/01/12 02:24:23;;;;;;;7.50;6.73;;;;;;;0.59;69.97;99418.41;5054330;28;20515;-73
2024/01/12 02:26:50;;;;;;;7.40;6.80;;;;;;;0.49;71.95;99394.88;5054297;28;20875;-73
2024/01/12 02:29:17;;;;;;;7.67;6.90;;;;;;;0.59;73.92;99403.59;5054398;28;20600;-73
2024/01/12 02:31:44;;;;;;;7.57;6.97;;;;;;;0.53;75.78;99393.66;5054514;28;20564;-73
2024/01/12 02:34:11;;;;;;;7.80;7.10;;;;;;;0.49;76.80;99387.03;5054143;28;20554;-73
2024/01/12 02:36:38;;;;;;;7.90;7.20;;;;;;;0.54;76.37;99386.66;5054226;28;20478;-73
2024/01/12 02:39:06;;;;;;;7.77;7.10;;;;;;;0.47;76.86;99380.31;5054225;28;20443;-73
2024/01/12 02:41:33;;;;;;;8.07;7.33;;;;;;;0.40;76.43;99374.81;5054044;28;20864;-73
2024/01/12 02:44:00;;;;;;;7.40;5.93;;;;;;;0.37;75.09;99372.47;5054223;28;20438;-73
2024/01/12 02:46:26;;;;;;;6.73;5.93;;;;;;;0.36;74.64;99362.16;5054180;28;20443;-73
2024/01/12 02:48:53;;;;;;;7.53;6.83;;;;;;;0.42;73.84;99370.28;5053409;28;20473;-73
2024/01/12 02:51:20;;;;;;;6.47;5.87;;;;;;;0.47;71.92;99385.53;5054225;28;20527;-73
2024/01/12 02:53:46;;;;;;;6.17;5.67;;;;;;;0.54;69.64;99384.03;5054154;28;20443;-73
2024/01/12 02:56:15;;;;;;;5.57;5.17;;;;;;;0.65;66.53;99395.19;5053992;28;20912;-73
2024/01/12 02:58:41;;;;;;;6.37;5.87;;;;;;;0.71;65.36;99391.22;5053979;28;20438;-73
2024/01/12 03:01:08;;;;;;;6.23;5.67;;;;;;;0.73;65.09;99403.16;5053595;28;20439;-73
2024/01/12 03:03:35;;;;;;;5.90;5.30;;;;;;;0.75;64.43;99385.56;5053865;28;20524;-73
2024/01/12 03:06:02;;;;;;;6.37;5.77;;;;;;;0.99;64.25;99395.63;5054041;28;20454;-73
2024/01/12 03:08:29;;;;;;;6.03;5.53;;;;;;;1.02;63.76;99385.69;5053344;28;20465;-73
2024/01/12 03:10:56;;;;;;;5.50;5.10;;;;;;;1.14;63.45;99399.47;5053557;28;20442;-73
2024/01/12 03:13:24;;;;;;;6.53;5.93;;;;;;;1.11;63.68;99395.34;5053830;28;20443;-73
2024/01/12 03:15:50;;;;;;;6.33;5.93;;;;;;;1.19;63.54;99402.50;5053391;28;21012;-73
2024/01/12 03:18:17;;;;;;;6.20;5.60;;;;;;;1.22;63.22;99403.03;5053513;28;20527;-73
2024/01/12 03:20:44;;;;;;;6.00;5.50;;;;;;;1.13;62.27;99413.50;5053154;28;20451;-73
2024/01/12 03:23:11;;;;;;;7.10;6.43;;;;;;;1.16;62.70;99414.06;5053431;28;20438;-73
2024/01/12 03:25:37;;;;;;;6.37;5.77;;;;;;;1.16;61.67;99403.59;5053049;28;20950;-73
2024/01/12 03:28:05;;;;;;;7.07;6.37;;;;;;;1.15;60.60;99407.19;5053495;28;20451;-73
2024/01/12 03:30:33;;;;;;;6.23;5.73;;;;;;;1.12;60.26;99401.38;5053298;28;21063;-73
2024/01/12 03:32:59;;;;;;;6.53;5.93;;;;;;;0.97;60.15;99413.25;5053317;28;20436;-72
2024/01/12 03:35:26;;;;;;;7.47;5.40;;;;;;;1.03;59.92;99408.28;5053039;28;20978;-71
2024/01/12 03:37:53;;;;;;;5.87;5.47;;;;;;;0.98;58.83;99420.13;5052760;28;20960;-72
2024/01/12 03:40:20;;;;;;;7.27;5.53;;;;;;;1.05;58.89;99426.47;5053189;28;20891;-71
2024/01/12 03:42:47;;;;;;;5.40;4.90;;;;;;;1.02;59.75;99427.53;5052676;28;20439;-71
2024/01/12 03:45:13;;;;;;;5.90;5.30;;;;;;;0.97;59.35;99424.50;5052598;28;20871;-73
2024/01/12 03:47:41;;;;;;;6.07;5.47;;;;;;;1.10;59.24;99424.25;5053033;28;20435;-72
2024/01/12 03:50:09;;;;;;;6.23;5.60;;;;;;;1.09;58.12;99431.25;5052451;28;20796;-73
2024/01/12 03:52:36;;;;;;;6.20;5.67;;;;;;;1.12;57.63;99423.16;5052821;28;20794;-73
2024/01/12 03:55:03;;;;;;;6.47;5.83;;;;;;;0.91;57.04;99424.25;5053006;28;20885;-73
2024/01/12 03:57:30;;;;;;;6.67;6.13;;;;;;;0.82;58.04;99438.97;5052911;28;20440;-73
2024/01/12 03:59:56;;;;;;;9.30;6.23;;;;;;;0.89;57.75;99445.28;5052771;28;20492;-73
2024/01/12 04:02:23;;;;;;;7.63;6.00;;;;;;;0.84;57.56;99450.09;5052067;28;20492;-73
2024/01/12 04:04:51;;;;;;;8.60;7.80;;;;;;;0.80;57.82;99447.88;5052375;28;20447;-73
2024/01/12 04:07:19;;;;;;;7.10;6.50;;;;;;;0.79;57.66;99449.69;5052426;28;20516;-73
2024/01/12 04:09:46;;;;;;;8.07;6.80;;;;;;;0.71;58.27;99446.09;5052627;28;20470;-72
2024/01/12 04:12:13;;;;;;;9.93;6.47;;;;;;;0.63;58.34;99445.94;5052273;28;20445;-72
2024/01/12 04:14:39;;;;;;;9.83;7.30;;;;;;;0.63;58.40;99445.94;5052586;28;20497;-73
2024/01/12 04:17:06;;;;;;;7.57;6.63;;;;;;;0.57;58.08;99442.06;5052342;28;20529;-72
2024/01/12 04:19:33;;;;;;;14.60;6.10;;;;;;;0.46;57.82;99444.81;5052608;28;20524;-73
2024/01/12 04:22:01;;;;;;;6.23;5.83;;;;;;;0.50;57.57;99445.34;5052362;28;20505;-73
2024/01/12 04:24:28;;;;;;;6.80;6.20;;;;;;;0.44;57.70;99448.53;5052069;28;20938;-73
2024/01/12 04:26:54;;;;;;;7.10;6.50;;;;;;;0.50;56.29;99456.66;5052407;28;20450;-73
2024/01/12 04:29:21;;;;;;;8.13;6.03;;;;;;;0.38;56.64;99452.50;5052043;28;20475;-72
2024/01/12 04:31:48;;;;;;;9.60;5.93;;;;;;;0.34;56.80;99452.88;5052236;28;20501;-72
2024/01/12 04:34:15;;;;;;;5.90;5.50;;;;;;;0.42;56.50;99453.88;5052107;28;20447;-73
2024/01/12 04:36:42;;;;;;;17.50;6.53;;;;;;;0.46;55.39;99460.50;5051992;28;20478;-73
2024/01/12 04:39:10;;;;;;;11.57;6.30;;;;;;;0.48;55.19;99458.56;5052275;28;20443;-74
2024/01/12 04:41:36;;;;;;;9.50;6.63;;;;;;;0.53;55.04;99455.56;5052052;28;20432;-74
2024/01/12 04:44:03;;;;;;;6.70;6.10;;;;;;;0.50;55.33;99461.03;5052101;28;20524;-74
2024/01/12 04:46:30;;;;;;;6.90;6.30;;;;;;;0.54;54.68;99465.03;5052170;28;20519;-78
2024/01/12 04:48:57;;;;;;;6.93;6.00;;;;;;;0.59;55.80;99460.22;5051377;28;20439;-74
2024/01/12 04:51:23;;;;;;;7.27;6.37;;;;;;;0.68;55.72;99462.88;5051631;28;21016;-73
2024/01/12 04:53:50;;;;;;;5.63;5.13;;;;;;;0.78;55.81;99460.28;5051869;28;20493;-74
2024/01/12 04:56:18;;;;;;;7.10;6.47;;;;;;;0.72;57.24;99461.63;5051672;28;21005;-73
2024/01/12 04:58:45;;;;;;;11.90;6.63;;;;;;;0.85;56.56;99458.78;5051827;28;20443;-74
2024/01/12 05:01:12;;;;;;;7.23;6.60;;;;;;;0.85;56.57;99462.19;5051811;28;20435;-74
2024/01/12 05:03:38;;;;;;;9.03;6.17;;;;;;;0.88;57.54;99466.34;5051623;28;20526;-74
2024/01/12 05:06:06;;;;;;;6.80;6.20;;;;;;;0.93;57.51;99464.97;5051295;28;20501;-73
2024/01/12 05:08:34;;;;;;;5.57;5.20;;;;;;;0.86;56.95;99474.31;5051235;28;20506;-74
2024/01/12 05:11:00;;;;;;;12.10;6.20;;;;;;;0.93;57.68;99475.44;5051455;28;20445;-73
2024/01/12 05:13:28;;;;;;;7.43;5.83;;;;;;;0.93;57.59;99478.03;5051143;28;20504;-73
2024/01/12 05:15:55;;;;;;;12.17;6.43;;;;;;;0.90;58.01;99480.91;5051408;28;20539;-73
2024/01/12 05:18:22;;;;;;;16.47;6.60;;;;;;;0.99;58.23;99477.50;5051024;28;20439;-72
2024/01/12 05:20:49;;;;;;;6.97;6.03;;;;;;;1.06;58.22;99469.94;5051331;28;20442;-73
2024/01/12 05:23:16;;;;;;;7.37;6.67;;;;;;;1.09;58.05;99474.88;5051124;28;20501;-76
2024/01/12 05:25:42;;;;;;;8.57;5.93;;;;;;;1.05;57.61;99473.53;5051489;28;20520;-78
2024/01/12 05:28:09;;;;;;;8.10;6.10;;;;;;;0.99;56.67;99482.75;5052235;28;20439;-77
2024/01/12 05:30:37;;;;;;;6.00;5.50;;;;;;;1.03;57.32;99478.91;5051395;28;20540;-72
2024/01/12 05:33:04;;;;;;;8.70;6.63;;;;;;;0.97;57.52;99487.25;5045824;28;20511;-66
2024/01/12 05:35:31;;;;;;;19.77;7.73;;;;;;;0.98;58.04;99483.69;5031004;28;20521;-67
2024/01/12 05:37:57;;;;;;;5.03;3.90;;;;;;;1.94;86.43;99432.06;5042748;28;20474;-66
2024/01/12 05:40:24;;;;;;;16.20;7.10;;;;;;;2.12;62.19;99480.94;5050832;28;20446;-66
2024/01/12 05:42:51;;;;;;;10.53;7.13;;;;;;;1.81;57.68;99476.91;5050893;28;20443;-67
2024/01/12 05:45:18;;;;;;;13.50;6.50;;;;;;;1.53;58.03;99469.09;5050654;28;20450;-67
2024/01/12 05:47:46;;;;;;;7.57;6.90;;;;;;;1.43;57.87;99469.09;5050899;28;20821;-67
2024/01/12 05:50:12;;;;;;;8.93;6.17;;;;;;;1.14;58.65;99467.47;5036739;28;20448;-58
2024/01/12 05:52:39;;;;;;;7.40;5.63;;;;;;;1.16;59.22;99476.84;5038145;28;20825;-58
2024/01/12 05:55:07;;;;;;;18.13;10.13;;;;;;;1.16;59.22;99471.59;5050701;28;20452;-58
2024/01/12 05:57:35;;;;;;;21.67;11.07;;;;;;;1.23;59.61;99482.34;5050203;28;20960;-58
2024/01/12 06:00:03;;;;;;;31.50;15.07;;;;;;;1.26;59.34;99485.50;5049918;28;20473;-58
2024/01/12 06:02:30;;;;;;;22.73;9.03;;;;;;;1.28;58.67;99483.56;5048998;28;20449;-58
2024/01/12 06:04:58;;;;;;;33.07;14.50;;;;;;;1.20;59.01;99483.44;5040812;28;20469;-59
2024/01/12 06:07:25;;;;;;;11.07;7.07;;;;;;;1.25;57.80;99486.47;5048830;28;20473;-57
2024/01/12 06:09:52;;;;;;;7.40;6.67;;;;;;;1.43;64.69;99466.47;5049615;28;20446;-58
2024/01/12 06:12:19;;;;;;;8.97;7.07;;;;;;;1.42;56.60;99498.84;5050473;28;20478;-60
2024/01/12 06:14:46;;;;;;;7.30;6.70;;;;;;;1.41;55.41;99497.22;5050121;28;20977;-57
2024/01/12 06:17:13;;;;;;;9.57;5.37;;;;;;;1.34;54.21;99506.56;5050351;28;20510;-58
2024/01/12 06:19:40;;;;;;;8.63;5.80;;;;;;;1.20;52.52;99508.75;5050138;28;20439;-59
2024/01/12 06:22:09;;;;;;;8.20;6.20;;;;;;;1.12;53.26;99501.59;5050304;28;20505;-57
2024/01/12 06:24:36;;;;;;;10.00;6.77;;;;;;;1.14;52.65;99515.34;5051321;28;20438;-60
2024/01/12 06:27:03;;;;;;;20.30;7.30;;;;;;;1.18;52.75;99516.75;5053389;28;20450;-59
2024/01/12 06:29:29;;;;;;;29.67;6.23;;;;;;;1.15;51.58;99519.66;5053468;28;20565;-58
2024/01/12 06:31:56;;;;;;;16.37;8.83;;;;;;;1.03;52.44;99518.13;5053622;28;20993;-58
2024/01/12 06:34:23;;;;;;;8.70;7.80;;;;;;;1.14;52.84;99519.78;5053753;28;20537;-58
2024/01/12 06:36:49;;;;;;;22.57;9.13;;;;;;;1.11;53.53;99523.50;5050357;28;20478;-58
2024/01/12 06:39:17;;;;;;;11.23;9.17;;;;;;;1.20;52.97;99535.75;5032827;28;20445;-58
2024/01/12 06:41:46;;;;;;;14.07;8.20;;;;;;;1.26;52.84;99544.84;5044497;28;20443;-58
2024/01/12 06:44:13;;;;;;;13.20;7.63;;;;;;;1.55;52.32;99551.72;5053419;28;20878;-58
2024/01/12 06:46:42;;;;;;;15.23;7.83;;;;;;;1.80;50.53;99560.84;5053772;28;20500;-58
2024/01/12 06:49:09;;;;;;;7.70;6.90;;;;;;;2.07;50.16;99567.00;5054088;28;20447;-59
2024/01/12 06:51:36;;;;;;;8.80;7.90;;;;;;;2.10;49.92;99571.13;5054151;28;20516;-58
2024/01/12 06:54:02;;;;;;;9.33;8.07;;;;;;;2.26;50.28;99577.44;5053619;28;20833;-58
2024/01/12 06:56:32;;;;;;;13.17;8.97;;;;;;;2.32;49.86;99579.47;5053265;28;21062;-58
2024/01/12 06:58:59;;;;;;;9.97;8.03;;;;;;;2.28;49.78;99577.31;5054110;28;20439;-59
2024/01/12 07:01:26;;;;;;;14.97;8.63;;;;;;;2.49;48.76;99570.88;5053192;28;20500;-58
2024/01/12 07:03:53;;;;;;;12.00;9.30;;;;;;;2.86;48.41;99574.31;5053145;28;20451;-59
2024/01/12 07:06:19;;;;;;;37.60;9.47;;;;;;;3.26;46.63;99581.81;5052955;28;20497;-58
2024/01/12 07:08:46;;;;;;;9.50;7.80;;;;;;;3.48;46.47;99579.59;5052705;28;20509;-59
2024/01/12 07:11:13;;;;;;;13.10;8.23;;;;;;;3.62;44.78;99584.34;5053197;28;20446;-59
2024/01/12 07:13:41;;;;;;;40.47;20.77;;;;;;;3.82;44.84;99585.84;5053161;28;20504;-59
2024/01/12 07:16:08;;;;;;;32.57;10.57;;;;;;;3.97;43.60;99592.19;5052684;28;20200;-58
2024/01/12 07:18:34;;;;;;;18.00;8.77;;;;;;;4.11;43.64;99589.03;5053560;28;20524;-58
2024/01/12 07:21:03;;;;;;;10.13;8.30;;;;;;;4.22;43.47;99593.22;5053582;28;20188;-59
2024/01/12 07:23:30;;;;;;;9.53;8.57;;;;;;;4.49;43.12;99607.03;5050115;28;20198;-58
2024/01/12 07:25:57;;;;;;;21.67;7.90;;;;;;;4.60;41.94;99613.84;5057958;28;20199;-59
2024/01/12 07:28:24;;;;;;;9.67;7.23;;;;;;;4.60;42.14;99606.78;5062667;28;20192;-59
2024/01/12 07:30:53;;;;;;;8.80;7.40;;;;;;;4.68;42.76;99601.56;5049952;28;20334;-58
2024/01/12 07:33:21;;;;;;;30.47;17.27;;;;;;;4.43;44.09;99602.41;5055376;28;20258;-58
2024/01/12 07:35:47;;;;;;;7.77;7.03;;;;;;;4.30;44.03;99607.22;5050814;28;20196;-59
2024/01/12 07:38:14;;;;;;;10.10;8.27;;;;;;;4.23;44.75;99590.44;5051931;28;20215;-59
2024/01/12 07:40:41;;;;;;;10.97;8.90;;;;;;;4.18;44.74;99611.09;5052207;28;20250;-59
2024/01/12 07:43:07;;;;;;;11.33;8.73;;;;;;;4.06;45.06;99609.69;5052885;28;20261;-58
2024/01/12 07:45:34;;;;;;;9.83;8.03;;;;;;;3.88;45.70;99608.88;5051615;28;20196;-58
2024/01/12 07:48:02;;;;;;;11.33;9.30;;;;;;;3.90;46.45;99599.03;5056092;28;20325;-58
2024/01/12 07:50:29;;;;;;;9.97;8.73;;;;;;;3.82;47.08;99601.59;5072533;28;20229;-59
2024/01/12 07:52:56;;;;;;;8.87;8.03;;;;;;;3.52;46.82;99607.19;5072283;28;20199;-59
2024/01/12 07:55:22;;;;;;;11.40;8.37;;;;;;;3.54;48.01;99613.16;5072480;28;20617;-58
2024/01/12 07:57:49;;;;;;;8.33;7.40;;;;;;;3.37;47.23;99611.31;5071756;28;20473;-58
2024/01/12 08:00:16;;;;;;;34.60;10.13;;;;;;;3.14;45.52;99610.06;5068519;28;21180;-59
2024/01/12 08:02:43;;;;;;;14.40;8.23;;;;;;;2.98;46.00;99617.75;5051390;28;20668;-59
2024/01/12 08:05:11;;;;;;;14.90;9.40;;;;;;;2.97;47.11;99618.72;5049606;28;20197;-59
2024/01/12 08:07:39;;;;;;;17.33;9.53;;;;;;;2.95;48.30;99625.91;5044400;28;20682;-60
2024/01/12 08:10:08;;;;;;;10.00;8.93;;;;;;;3.24;48.15;99616.09;5048604;28;20443;-61
2024/01/12 08:12:35;;;;;;;10.70;9.20;;;;;;;3.66;46.97;99627.72;5048188;28;20724;-58
2024/01/12 08:15:02;;;;;;;15.10;9.20;;;;;;;3.88;46.61;99631.69;5052087;28;20454;-59
2024/01/12 08:17:29;;;;;;;12.70;8.50;;;;;;;4.27;45.98;99633.00;5050558;28;20274;-59
2024/01/12 08:19:55;;;;;;;14.03;9.27;;;;;;;4.61;44.04;99647.03;5051408;28;20642;-60
2024/01/12 08:22:23;;;;;;;9.23;7.53;;;;;;;5.08;42.46;99654.44;5050731;28;20192;-59
2024/01/12 08:24:50;;;;;;;14.00;8.00;;;;;;;5.25;42.19;99660.56;5050160;28;20192;-59
2024/01/12 08:27:17;;;;;;;13.27;7.90;;;;;;;5.38;42.23;99663.59;5050484;28;20200;-60
2024/01/12 08:29:44;;;;;;;15.30;8.53;;;;;;;5.92;42.06;99668.38;5049930;28;20236;-58
2024/01/12 08:32:11;;;;;;;9.13;7.17;;;;;;;6.74;52.42;99649.75;5051462;28;20196;-61
2024/01/12 08:34:39;;;;;;;7.93;6.38;;;;;;;7.76;56.67;99644.22;5050896;28;20523;-60
2024/01/12 08:37:06;;;;;;;9.03;7.30;;;;;;;8.15;39.34;99662.66;5050916;28;20217;-59
2024/01/12 08:39:34;;;;;;;15.20;8.00;;;;;;;8.17;36.26;99668.59;5051016;28;20628;-58
2024/01/12 08:42:01;;;;;;;19.10;8.07;;;;;;;8.45;35.18;99667.91;5051185;28;20330;-59
2024/01/12 08:44:28;;;;;;;19.90;13.37;;;;;;;8.27;35.18;99662.09;5051023;28;20199;-60
2024/01/12 08:46:54;;;;;;;31.77;11.03;;;;;;;8.65;35.55;99673.50;5051040;28;20200;-60
2024/01/12 08:49:21;;;;;;;9.57;7.33;;;;;;;8.49;35.07;99668.38;5051229;28;20242;-61
2024/01/12 08:51:49;;;;;;;18.97;8.77;;;;;;;8.58;35.29;99664.66;5050998;28;20265;-61
2024/01/12 08:54:16;;;;;;;8.07;6.60;;;;;;;8.05;33.94;99664.72;5051124;28;20571;-60
2024/01/12 08:56:44;;;;;;;12.07;7.07;;;;;;;7.79;34.36;99661.56;5050330;28;20573;-60
2024/01/12 08:59:11;;;;;;;8.90;6.63;;;;;;;7.82;35.06;99664.69;5051442;28;20192;-61
2024/01/12 09:01:37;;;;;;;22.47;8.37;;;;;;;7.90;36.20;99672.59;5051194;28;20184;-61
2024/01/12 09:04:04;;;;;;;9.10;6.57;;;;;;;8.09;35.15;99669.47;5050770;28;20196;-61
2024/01/12 09:06:31;;;;;;;8.87;7.17;;;;;;;7.71;35.23;99677.47;5040511;28;20251;-60
2024/01/12 09:08:58;;;;;;;10.20;6.93;;;;;;;7.37;34.02;99669.88;5031306;28;20203;-61
2024/01/12 09:11:24;;;;;;;6.47;5.87;;;;;;;7.32;35.38;99671.38;5030829;28;20204;-60
2024/01/12 09:13:52;;;;;;;8.03;6.23;;;;;;;6.86;35.55;99682.75;5030726;28;20246;-60
2024/01/12 09:16:19;;;;;;;13.97;7.20;;;;;;;6.59;36.42;99678.66;5030808;28;20699;-60
2024/01/12 09:18:48;;;;;;;11.77;6.87;;;;;;;6.57;36.42;99685.09;5030679;28;20220;-59
2024/01/12 09:21:15;;;;;;;11.10;7.10;;;;;;;6.45;36.61;99676.66;5052209;28;20666;-61
2024/01/12 09:23:43;;;;;;;11.07;7.33;;;;;;;7.04;36.78;99693.91;5050576;28;20195;-61
2024/01/12 09:26:11;;;;;;;19.80;9.17;;;;;;;7.09;35.77;99691.56;5050952;28;20211;-59
2024/01/12 09:28:38;;;;;;;11.70;8.17;;;;;;;7.03;36.39;99687.00;5050126;28;20196;-58
2024/01/12 09:31:08;;;;;;;15.33;8.80;;;;;;;7.08;36.16;99689.94;5051274;28;20235;-58
2024/01/12 09:33:35;;;;;;;17.13;8.30;;;;;;;7.26;36.11;99682.63;5050444;28;20242;-58
2024/01/12 09:36:03;;;;;;;15.53;7.97;;;;;;;7.08;36.12;99682.00;5050606;28;20268;-59
2024/01/12 09:38:30;;;;;;;16.10;7.80;;;;;;;6.80;36.83;99683.38;5049041;28;20233;-60
2024/01/12 09:40:58;;;;;;;16.83;7.90;;;;;;;6.67;36.82;99683.09;5050994;28;20200;-59
2024/01/12 09:43:29;;;;;;;10.87;7.57;;;;;;;6.54;37.05;99680.13;5050295;28;20192;-59
2024/01/12 09:46:00;;;;;;;13.57;7.83;;;;;;;6.54;38.06;99685.41;5050519;28;20577;-58
2024/01/12 09:48:28;;;;;;;37.53;8.07;;;;;;;6.58;37.23;99676.16;5050585;28;20192;-59
2024/01/12 09:50:55;;;;;;;10.20;6.43;;;;;;;6.63;37.75;99669.41;5050849;28;20265;-58
2024/01/12 09:53:22;;;;;;;9.67;7.17;;;;;;;6.90;37.83;99676.13;5050811;28;20194;-59
2024/01/12 09:55:49;;;;;;;8.57;7.07;;;;;;;6.90;37.63;99676.13;5050657;28;20204;-59
2024/01/12 09:58:17;;;;;;;12.70;7.40;;;;;;;6.80;36.83;99675.47;5050392;28;20680;-59
2024/01/12 10:00:45;;;;;;;9.80;6.17;;;;;;;6.75;37.12;99683.91;5053526;28;20189;-59
2024/01/12 10:03:13;;;;;;;12.40;6.47;;;;;;;6.61;37.70;99678.47;5054789;28;20194;-58
2024/01/12 10:05:42;;;;;;;8.43;6.43;;;;;;;6.61;37.84;99686.41;5054297;28;20254;-58
2024/01/12 10:08:09;;;;;;;8.10;6.90;;;;;;;6.33;38.57;99682.44;5054300;28;20243;-58
2024/01/12 10:10:35;;;;;;;12.57;7.50;;;;;;;6.35;39.02;99683.09;5052904;28;20722;-60
2024/01/12 10:13:02;;;;;;;13.27;7.13;;;;;;;6.41;38.86;99674.53;5053037;28;20196;-58
2024/01/12 10:15:32;;;;;;;8.00;7.20;;;;;;;6.30;39.44;99688.03;5054460;28;20200;-59
2024/01/12 10:17:59;;;;;;;8.03;6.90;;;;;;;6.29;39.56;99681.13;5054380;28;20229;-58
2024/01/12 10:20:26;;;;;;;9.63;6.77;;;;;;;6.43;39.15;99677.81;5054035;28;20192;-58
2024/01/12 10:22:58;;;;;;;18.30;8.63;;;;;;;6.57;39.91;99682.44;5054291;28;20196;-58
2024/01/12 10:25:24;;;;;;;15.07;8.30;;;;;;;6.51;39.90;99680.44;5053535;28;20756;-59
2024/01/12 10:27:55;;;;;;;25.30;7.93;;;;;;;6.45;39.45;99681.13;5054296;28;20277;-58
2024/01/12 10:30:22;;;;;;;8.83;7.47;;;;;;;6.62;39.14;99682.75;5053708;28;20227;-58
2024/01/12 10:32:50;;;;;;;15.27;8.90;;;;;;;6.78;39.30;99677.47;5053666;28;20193;-60
2024/01/12 10:35:17;;;;;;;8.80;7.93;;;;;;;6.82;39.26;99668.22;5053728;28;20229;-59
2024/01/12 10:37:47;;;;;;;10.80;7.97;;;;;;;6.76;39.50;99674.16;5052441;28;20657;-59
2024/01/12 10:40:16;;;;;;;15.03;11.17;;;;;;;6.76;39.21;99674.16;5053542;28;20197;-60
2024/01/12 10:42:48;;;;;;;12.30;8.87;;;;;;;6.93;38.23;99673.13;5053786;28;20227;-60
2024/01/12 10:45:20;;;;;;;14.87;8.03;;;;;;;7.26;37.79;99678.16;5053153;28;20185;-60
2024/01/12 10:47:51;;;;;;;7.67;6.47;;;;;;;7.20;37.92;99678.84;5053935;28;20192;-59
2024/01/12 10:50:19;;;;;;;7.40;6.73;;;;;;;7.23;37.81;99693.53;5053645;28;20193;-59
2024/01/12 10:52:54;;;;;;;8.03;7.03;;;;;;;7.15;37.94;99675.88;5048072;28;20284;-60
2024/01/12 10:55:26;;;;;;;9.57;7.00;;;;;;;7.24;38.62;99674.03;5044029;28;20675;-61
2024/01/12 10:57:55;;;;;;;12.00;7.10;;;;;;;7.16;38.19;99682.00;5032254;28;20205;-59
2024/01/12 11:00:21;;;;;;;14.27;8.57;;;;;;;7.28;38.74;99675.34;5033934;28;20189;-57
2024/01/12 11:02:49;;;;;;;14.00;7.87;;;;;;;7.35;38.04;99671.03;5033810;28;20308;-60
2024/01/12 11:05:17;;;;;;;8.43;7.63;;;;;;;7.53;44.62;99651.31;5031933;28;20533;-59
2024/01/12 11:07:44;;;;;;;10.27;7.57;;;;;;;7.45;38.45;99661.91;5033569;28;20197;-58
2024/01/12 11:10:13;;;;;;;10.33;7.70;;;;;;;7.55;37.98;99661.72;5032697;28;20730;-58
2024/01/12 11:12:42;;;;;;;13.73;8.60;;;;;;;7.61;39.04;99656.56;5033252;28;20193;-58
2024/01/12 11:15:10;;;;;;;9.80;8.90;;;;;;;7.73;38.01;99664.91;5032663;28;20224;-58
2024/01/12 11:17:37;;;;;;;8.47;7.67;;;;;;;7.41;38.72;99668.53;5033195;28;20563;-58
2024/01/12 11:20:09;;;;;;;7.23;6.53;;;;;;;7.22;38.74;99662.84;5045402;28;20196;-59
2024/01/12 11:22:36;;;;;;;10.60;8.40;;;;;;;7.16;38.85;99663.50;5053423;28;20193;-58
2024/01/12 11:25:03;;;;;;;12.90;8.47;;;;;;;7.30;38.80;99663.63;5053590;28;20196;-58
2024/01/12 11:27:32;;;;;;;8.40;7.57;;;;;;;7.15;38.78;99667.16;5053264;28;20886;-60
2024/01/12 11:30:01;;;;;;;14.67;7.57;;;;;;;6.77;38.68;99660.78;5053210;28;20285;-60
2024/01/12 11:32:28;;;;;;;14.17;8.17;;;;;;;6.89;39.59;99663.91;5053756;28;20189;-60
2024/01/12 11:35:10;;;;;;;11.07;8.77;;;;;;;7.07;39.31;99667.16;5052185;28;20682;-60
2024/01/12 11:37:38;;;;;;;11.07;7.80;;;;;;;7.16;38.67;99671.44;5053013;28;20187;-60
2024/01/12 11:40:09;;;;;;;11.03;8.07;;;;;;;7.06;38.14;99673.44;5053286;28;20220;-58